Terminal Aerodrome Forecast
Issued by NWS Raleigh/Durham, NC

Home | Current Version | Previous Version | Text Only | Print | Product List | Glossary On
Versions: 1 2 3 4 5 6 7 8 9 10 11 12 13 14 15 16 17 18 19 20
000
FTUS42 KRAH 200520
TAFGSO
TAF
KGSO 200520Z 2006/2106 00000KT P6SM FEW250
     FM201200 03003KT P6SM SKC
     FM201900 12006KT P6SM FEW250=

USA.gov is the U.S. government's official web portal to all federal, state and local government web resources and services.